Time;durP1;ratioP1;P1;durP2;ratioP2;P2;SDS_P1;SDS_P2;PMS_P1;PMS_P2;Temp;Humidity;BMP_temperature;BMP_pressure;BME280_temperature;BME280_humidity;BME280_pressure;Samples;Min_cycle;Max_cycle;Signal;HPM_P1;HPM_P2
2024/01/31 00:00:09;;;;;;;11.95;3.25;;;;;;;;;;5072162;28;20497;-58
2024/01/31 00:02:38;;;;;;;4.80;3.45;;;;;;;;;;5070562;28;20474;-59
2024/01/31 00:05:06;;;;;;;6.35;3.17;;;;;;;;;;5069309;28;20545;-59
2024/01/31 00:07:35;;;;;;;8.13;3.38;;;;;;;;;;5058115;28;20059;-59
2024/01/31 00:10:04;;;;;;;7.13;3.72;;;;;;;;;;5071255;28;20102;-56
2024/01/31 00:12:33;;;;;;;6.22;3.00;;;;;;;;;;5069161;28;20094;-58
2024/01/31 00:15:03;;;;;;;6.45;3.30;;;;;;;;;;5069364;28;20086;-62
2024/01/31 00:17:31;;;;;;;8.07;3.08;;;;;;;;;;5057840;28;20040;-59
2024/01/31 00:20:00;;;;;;;6.97;3.75;;;;;;;;;;5069927;28;20083;-59
2024/01/31 00:22:28;;;;;;;5.15;3.28;;;;;;;;;;5069820;28;20586;-56
2024/01/31 00:24:57;;;;;;;5.55;3.35;;;;;;;;;;5066201;28;20048;-62
2024/01/31 00:27:25;;;;;;;5.82;3.35;;;;;;;;;;5070195;28;20199;-61
2024/01/31 00:29:54;;;;;;;4.90;3.15;;;;;;;;;;5070107;28;20102;-59
2024/01/31 00:32:23;;;;;;;4.68;3.20;;;;;;;;;;5066916;28;20056;-60
2024/01/31 00:34:52;;;;;;;10.43;3.03;;;;;;;;;;5070784;28;20064;-58
2024/01/31 00:37:20;;;;;;;5.35;3.17;;;;;;;;;;5066702;28;20072;-58
2024/01/31 00:39:49;;;;;;;6.75;3.10;;;;;;;;;;5066187;28;20040;-59
2024/01/31 00:42:17;;;;;;;4.95;2.72;;;;;;;;;;5069181;28;20048;-61
2024/01/31 00:44:46;;;;;;;3.55;2.63;;;;;;;;;;5068861;28;20102;-60
2024/01/31 00:47:14;;;;;;;8.70;3.10;;;;;;;;;;5066936;28;20515;-58
2024/01/31 00:49:44;;;;;;;4.53;3.13;;;;;;;;;;5070262;28;20056;-58
2024/01/31 00:52:12;;;;;;;4.72;2.95;;;;;;;;;;5070023;28;20068;-59
2024/01/31 00:54:41;;;;;;;4.95;2.75;;;;;;;;;;5067672;28;20053;-60
2024/01/31 00:57:12;;;;;;;5.28;2.85;;;;;;;;;;5068668;28;20036;-59
2024/01/31 00:59:42;;;;;;;6.03;2.95;;;;;;;;;;5068256;28;20052;-58
2024/01/31 01:02:10;;;;;;;4.72;2.58;;;;;;;;;;5069565;28;20106;-60
2024/01/31 01:04:39;;;;;;;4.82;3.00;;;;;;;;;;5069128;28;20094;-59
2024/01/31 01:07:09;;;;;;;5.43;3.20;;;;;;;;;;5068177;28;20436;-59
2024/01/31 01:09:37;;;;;;;5.18;3.08;;;;;;;;;;5070241;28;20052;-58
2024/01/31 01:12:06;;;;;;;5.22;3.38;;;;;;;;;;5070136;28;20044;-60
2024/01/31 01:14:34;;;;;;;8.93;3.42;;;;;;;;;;5070908;28;20102;-58
2024/01/31 01:17:04;;;;;;;4.38;2.60;;;;;;;;;;5066852;28;20462;-60
2024/01/31 01:19:32;;;;;;;5.30;3.13;;;;;;;;;;5068806;28;20076;-59
2024/01/31 01:22:01;;;;;;;3.33;2.53;;;;;;;;;;5066263;28;20057;-59
2024/01/31 01:24:32;;;;;;;7.00;2.88;;;;;;;;;;5070683;28;20049;-60
2024/01/31 01:27:00;;;;;;;6.35;3.33;;;;;;;;;;5069251;28;20107;-58
2024/01/31 01:29:29;;;;;;;5.63;3.00;;;;;;;;;;5069856;28;20048;-59
2024/01/31 01:31:57;;;;;;;8.02;2.88;;;;;;;;;;5069480;28;20094;-61
2024/01/31 01:34:25;;;;;;;6.05;2.85;;;;;;;;;;5069871;28;20094;-60
2024/01/31 01:36:54;;;;;;;4.47;3.10;;;;;;;;;;5067306;28;20049;-58
2024/01/31 01:39:22;;;;;;;4.68;2.65;;;;;;;;;;5064698;28;20059;-58
2024/01/31 01:41:52;;;;;;;5.10;2.28;;;;;;;;;;5069880;28;20543;-61
2024/01/31 01:44:21;;;;;;;5.40;2.97;;;;;;;;;;5068023;28;20098;-59
2024/01/31 01:46:49;;;;;;;5.00;2.88;;;;;;;;;;5068839;28;20048;-59
2024/01/31 01:49:18;;;;;;;5.95;2.95;;;;;;;;;;5068579;28;20049;-60
2024/01/31 01:51:47;;;;;;;4.20;2.70;;;;;;;;;;5068536;28;20499;-59
2024/01/31 01:54:15;;;;;;;6.60;2.90;;;;;;;;;;5067826;28;20497;-60
2024/01/31 01:56:45;;;;;;;6.78;2.97;;;;;;;;;;5068961;28;20109;-62
2024/01/31 01:59:15;;;;;;;4.82;2.50;;;;;;;;;;5068644;28;20044;-59
2024/01/31 02:01:44;;;;;;;4.65;3.17;;;;;;;;;;5066216;28;20078;-60
2024/01/31 02:04:12;;;;;;;5.28;2.88;;;;;;;;;;5068116;28;20049;-58
2024/01/31 02:06:41;;;;;;;4.03;2.83;;;;;;;;;;5067903;28;20124;-61
2024/01/31 02:09:10;;;;;;;4.43;2.75;;;;;;;;;;5069113;28;20072;-59
2024/01/31 02:11:38;;;;;;;5.18;3.10;;;;;;;;;;5068314;28;20055;-59
2024/01/31 02:14:06;;;;;;;6.07;2.90;;;;;;;;;;5067988;28;20518;-62
2024/01/31 02:16:36;;;;;;;4.82;2.22;;;;;;;;;;5063386;28;20048;-57
2024/01/31 02:19:05;;;;;;;4.07;2.40;;;;;;;;;;5069199;28;20051;-59
2024/01/31 02:21:35;;;;;;;4.45;2.80;;;;;;;;;;5064834;28;20082;-62
2024/01/31 02:24:05;;;;;;;4.60;2.75;;;;;;;;;;5067396;28;20052;-59
2024/01/31 02:26:33;;;;;;;4.45;2.72;;;;;;;;;;5068255;28;20501;-59
2024/01/31 02:29:01;;;;;;;3.65;2.63;;;;;;;;;;5069752;28;20113;-58
2024/01/31 02:31:30;;;;;;;4.80;2.55;;;;;;;;;;5068932;28;20048;-61
2024/01/31 02:33:58;;;;;;;5.78;2.70;;;;;;;;;;5068381;28;20118;-61
2024/01/31 02:36:27;;;;;;;6.63;2.90;;;;;;;;;;5066821;28;20049;-59
2024/01/31 02:38:55;;;;;;;5.30;2.60;;;;;;;;;;5068179;28;20056;-58
2024/01/31 02:41:25;;;;;;;3.85;2.65;;;;;;;;;;5072048;28;20346;-58
2024/01/31 02:43:53;;;;;;;4.68;2.97;;;;;;;;;;5071957;28;20570;-59
2024/01/31 02:46:22;;;;;;;7.05;2.47;;;;;;;;;;5070053;28;20086;-59
2024/01/31 02:48:50;;;;;;;3.97;2.40;;;;;;;;;;5072152;28;20124;-59
2024/01/31 02:51:19;;;;;;;4.47;2.70;;;;;;;;;;5072176;28;20113;-58
2024/01/31 02:53:47;;;;;;;3.03;2.20;;;;;;;;;;5072408;28;20105;-59
2024/01/31 02:56:15;;;;;;;3.42;2.65;;;;;;;;;;5073029;28;20066;-58
2024/01/31 02:58:45;;;;;;;4.78;2.50;;;;;;;;;;5071515;28;20462;-62
2024/01/31 03:01:13;;;;;;;5.25;3.00;;;;;;;;;;5071699;28;20084;-60
2024/01/31 03:03:42;;;;;;;6.18;2.50;;;;;;;;;;5072421;28;20094;-59
2024/01/31 03:06:10;;;;;;;5.05;2.60;;;;;;;;;;5071565;28;20078;-59
2024/01/31 03:08:39;;;;;;;3.85;2.67;;;;;;;;;;5071940;28;20521;-58
2024/01/31 03:11:07;;;;;;;5.13;2.33;;;;;;;;;;5071899;28;20041;-62
2024/01/31 03:13:36;;;;;;;6.03;2.60;;;;;;;;;;5071903;28;20059;-61
2024/01/31 03:16:06;;;;;;;2.85;2.28;;;;;;;;;;5069495;28;20558;-58
2024/01/31 03:18:34;;;;;;;4.53;2.67;;;;;;;;;;5071960;28;20048;-59
2024/01/31 03:21:02;;;;;;;2.90;2.10;;;;;;;;;;5070983;28;20561;-59
2024/01/31 03:23:31;;;;;;;5.60;2.50;;;;;;;;;;5071650;28;20041;-60
2024/01/31 03:25:59;;;;;;;5.80;2.72;;;;;;;;;;5071476;28;20083;-60
2024/01/31 03:28:28;;;;;;;4.95;2.92;;;;;;;;;;5068762;28;20055;-61
2024/01/31 03:30:56;;;;;;;5.57;2.47;;;;;;;;;;5072475;28;20055;-58
2024/01/31 03:33:26;;;;;;;4.78;2.30;;;;;;;;;;5071991;28;20493;-58
2024/01/31 03:35:55;;;;;;;3.67;2.28;;;;;;;;;;5060397;28;20121;-60
2024/01/31 03:38:23;;;;;;;5.07;2.45;;;;;;;;;;5067577;28;20117;-59
2024/01/31 03:40:52;;;;;;;4.03;2.60;;;;;;;;;;5071969;28;20489;-62
2024/01/31 03:43:20;;;;;;;5.22;2.72;;;;;;;;;;5072075;28;20140;-59
2024/01/31 03:45:49;;;;;;;4.68;2.22;;;;;;;;;;5072434;28;20045;-59
2024/01/31 03:48:17;;;;;;;4.45;2.78;;;;;;;;;;5071274;28;20106;-59
2024/01/31 03:50:47;;;;;;;3.13;2.35;;;;;;;;;;5067628;28;20077;-62
2024/01/31 03:53:15;;;;;;;3.90;2.63;;;;;;;;;;5066551;28;20106;-60
2024/01/31 03:55:44;;;;;;;3.85;2.67;;;;;;;;;;5071334;28;20048;-58
2024/01/31 03:58:12;;;;;;;5.43;2.83;;;;;;;;;;5071219;28;20123;-59
2024/01/31 04:00:41;;;;;;;5.68;2.70;;;;;;;;;;5069969;28;20143;-60
2024/01/31 04:03:10;;;;;;;4.00;2.30;;;;;;;;;;5070101;28;20052;-61
2024/01/31 04:05:38;;;;;;;4.82;2.20;;;;;;;;;;5070099;28;20041;-60
2024/01/31 04:08:08;;;;;;;5.53;2.50;;;;;;;;;;5070936;28;20091;-58
2024/01/31 04:10:37;;;;;;;3.88;2.35;;;;;;;;;;5071455;28;20059;-58
2024/01/31 04:13:06;;;;;;;3.58;2.22;;;;;;;;;;5071637;28;20082;-62
2024/01/31 04:15:34;;;;;;;4.80;2.40;;;;;;;;;;5067587;28;20045;-58
2024/01/31 04:18:03;;;;;;;5.13;2.53;;;;;;;;;;5070585;28;20462;-57
2024/01/31 04:20:31;;;;;;;4.22;2.58;;;;;;;;;;5071532;28;20530;-58
2024/01/31 04:23:00;;;;;;;5.55;2.47;;;;;;;;;;5070957;28;20074;-59
2024/01/31 04:25:30;;;;;;;3.45;2.47;;;;;;;;;;5066460;28;20056;-58
2024/01/31 04:27:58;;;;;;;2.95;2.00;;;;;;;;;;5068861;28;20094;-60
2024/01/31 04:30:27;;;;;;;5.15;2.60;;;;;;;;;;5069780;28;20208;-61
2024/01/31 04:33:01;;;;;;;5.22;2.30;;;;;;;;;;5070983;28;20131;-58
2024/01/31 04:35:30;;;;;;;3.20;2.15;;;;;;;;;;5071406;28;20101;-59
2024/01/31 04:37:58;;;;;;;4.03;2.40;;;;;;;;;;5068388;28;20074;-58
2024/01/31 04:40:26;;;;;;;3.75;2.08;;;;;;;;;;5067643;28;20691;-62
2024/01/31 04:42:56;;;;;;;2.67;2.05;;;;;;;;;;5069592;28;20047;-63
2024/01/31 04:45:25;;;;;;;3.05;2.20;;;;;;;;;;5069401;28;20143;-58
2024/01/31 04:47:53;;;;;;;3.30;2.42;;;;;;;;;;5069451;28;20528;-58
2024/01/31 04:50:22;;;;;;;4.25;2.42;;;;;;;;;;5066093;28;20075;-59
2024/01/31 04:52:50;;;;;;;4.93;2.60;;;;;;;;;;5068492;28;20512;-57
2024/01/31 04:55:19;;;;;;;5.25;2.70;;;;;;;;;;5068235;28;20062;-59
2024/01/31 04:57:47;;;;;;;4.28;2.25;;;;;;;;;;5070960;28;20052;-58
2024/01/31 05:00:18;;;;;;;4.18;2.58;;;;;;;;;;5068065;28;20502;-60
2024/01/31 05:02:46;;;;;;;3.83;2.40;;;;;;;;;;5065858;28;20040;-62
2024/01/31 05:05:15;;;;;;;2.90;2.28;;;;;;;;;;5069173;28;20045;-60
2024/01/31 05:07:43;;;;;;;3.53;2.30;;;;;;;;;;5067929;28;20044;-58
2024/01/31 05:10:12;;;;;;;6.10;2.33;;;;;;;;;;5068496;28;20354;-58
2024/01/31 05:12:41;;;;;;;3.58;2.50;;;;;;;;;;5070182;28;20595;-58
2024/01/31 05:15:10;;;;;;;4.28;2.25;;;;;;;;;;5064318;28;20452;-59
2024/01/31 05:17:40;;;;;;;5.63;2.38;;;;;;;;;;5066712;28;20056;-61
2024/01/31 05:20:09;;;;;;;4.70;2.40;;;;;;;;;;5067055;28;20084;-61
2024/01/31 05:22:37;;;;;;;4.43;2.28;;;;;;;;;;5068399;28;20048;-58
2024/01/31 05:25:07;;;;;;;3.25;2.63;;;;;;;;;;5066656;28;20041;-60
2024/01/31 05:27:36;;;;;;;3.10;2.30;;;;;;;;;;5069068;28;20057;-58
2024/01/31 05:30:04;;;;;;;4.18;2.40;;;;;;;;;;5067955;28;20043;-63
2024/01/31 05:32:33;;;;;;;3.95;2.35;;;;;;;;;;5064879;28;20487;-61
2024/01/31 05:35:03;;;;;;;3.85;2.67;;;;;;;;;;5067595;28;20095;-58
2024/01/31 05:37:32;;;;;;;6.05;2.78;;;;;;;;;;5058692;28;20051;-57
2024/01/31 05:40:01;;;;;;;3.65;2.28;;;;;;;;;;5060358;28;20056;-59
2024/01/31 05:42:29;;;;;;;3.63;2.13;;;;;;;;;;5068291;28;20476;-58
2024/01/31 05:44:58;;;;;;;3.90;2.45;;;;;;;;;;5067130;28;20106;-58
2024/01/31 05:47:26;;;;;;;4.05;2.58;;;;;;;;;;5067563;28;20076;-57
2024/01/31 05:49:55;;;;;;;4.40;2.55;;;;;;;;;;5069225;28;20134;-57
2024/01/31 05:52:24;;;;;;;3.83;2.42;;;;;;;;;;5064255;28;20045;-61
2024/01/31 05:54:53;;;;;;;4.35;2.13;;;;;;;;;;5064757;28;20041;-58
2024/01/31 05:57:21;;;;;;;5.43;2.75;;;;;;;;;;5065424;28;20200;-58
2024/01/31 05:59:49;;;;;;;5.13;2.58;;;;;;;;;;5067331;28;20049;-59
2024/01/31 06:02:18;;;;;;;4.85;2.40;;;;;;;;;;5067429;28;20064;-58
2024/01/31 06:04:47;;;;;;;5.88;2.80;;;;;;;;;;5067344;28;20055;-59
2024/01/31 06:07:15;;;;;;;4.13;2.28;;;;;;;;;;5065598;28;20052;-59
2024/01/31 06:09:45;;;;;;;6.45;2.70;;;;;;;;;;5066611;28;20110;-59
2024/01/31 06:12:13;;;;;;;5.25;2.72;;;;;;;;;;5066028;28;20048;-58
2024/01/31 06:14:42;;;;;;;3.90;2.75;;;;;;;;;;5066472;28;20052;-59
2024/01/31 06:17:10;;;;;;;2.33;2.08;;;;;;;;;;5065598;28;20049;-59
2024/01/31 06:19:39;;;;;;;5.28;2.28;;;;;;;;;;5064088;28;20092;-59
2024/01/31 06:22:08;;;;;;;4.93;2.35;;;;;;;;;;5068387;28;20367;-62
2024/01/31 06:24:37;;;;;;;3.75;2.10;;;;;;;;;;5068034;28;20045;-59
2024/01/31 06:27:07;;;;;;;5.63;2.72;;;;;;;;;;5068277;28;20040;-59
2024/01/31 06:29:35;;;;;;;2.65;2.15;;;;;;;;;;5059691;28;20048;-62
2024/01/31 06:32:04;;;;;;;4.30;2.63;;;;;;;;;;5064603;28;20557;-60
2024/01/31 06:34:33;;;;;;;4.82;2.38;;;;;;;;;;5067003;28;20060;-59
2024/01/31 06:37:01;;;;;;;3.40;2.80;;;;;;;;;;5068169;28;20225;-59
2024/01/31 06:39:30;;;;;;;6.85;2.47;;;;;;;;;;5068052;28;20055;-59
2024/01/31 06:41:58;;;;;;;2.92;2.53;;;;;;;;;;5066123;28;20049;-59
2024/01/31 06:44:28;;;;;;;4.57;2.65;;;;;;;;;;5067643;28;20041;-60
2024/01/31 06:46:56;;;;;;;7.25;3.03;;;;;;;;;;5063172;28;20037;-59
2024/01/31 06:49:25;;;;;;;4.40;2.45;;;;;;;;;;5060812;28;20171;-59
2024/01/31 06:51:53;;;;;;;5.20;2.75;;;;;;;;;;5062549;28;20056;-59
2024/01/31 06:54:22;;;;;;;6.05;2.70;;;;;;;;;;5067290;28;20053;-59
2024/01/31 06:56:50;;;;;;;4.22;2.55;;;;;;;;;;5066875;28;20196;-59
2024/01/31 06:59:19;;;;;;;4.78;2.28;;;;;;;;;;5068144;28;20051;-58
2024/01/31 07:01:48;;;;;;;3.17;2.03;;;;;;;;;;5067880;28;20070;-59
2024/01/31 07:04:17;;;;;;;4.18;2.60;;;;;;;;;;5068766;28;20055;-59
2024/01/31 07:06:46;;;;;;;5.85;2.60;;;;;;;;;;5067674;28;20048;-59
2024/01/31 07:09:14;;;;;;;2.97;2.25;;;;;;;;;;5067906;28;20126;-60
2024/01/31 07:11:43;;;;;;;5.03;2.63;;;;;;;;;;5066659;28;20169;-60
2024/01/31 07:14:11;;;;;;;5.30;2.60;;;;;;;;;;5069015;28;20459;-59
2024/01/31 07:16:39;;;;;;;8.82;2.80;;;;;;;;;;5068553;28;20113;-59
2024/01/31 07:19:09;;;;;;;2.97;2.17;;;;;;;;;;5068683;28;20048;-61
2024/01/31 07:21:38;;;;;;;5.38;2.88;;;;;;;;;;5067784;28;20060;-58
2024/01/31 07:24:07;;;;;;;6.13;2.40;;;;;;;;;;5058804;28;20403;-60
2024/01/31 07:26:51;;;;;;;5.20;2.63;;;;;;;;;;5068618;28;20153;-58
2024/01/31 07:29:19;;;;;;;4.15;2.50;;;;;;;;;;5062522;28;20056;-58
2024/01/31 07:31:48;;;;;;;7.07;2.60;;;;;;;;;;5071708;28;20093;-59
2024/01/31 07:34:18;;;;;;;6.38;2.67;;;;;;;;;;5071198;28;20228;-59
2024/01/31 07:36:47;;;;;;;4.22;2.70;;;;;;;;;;5069790;28;20052;-61
2024/01/31 07:39:15;;;;;;;8.60;2.60;;;;;;;;;;5072032;28;20049;-58
2024/01/31 07:41:45;;;;;;;3.25;2.33;;;;;;;;;;5072598;28;20127;-58
2024/01/31 07:44:13;;;;;;;5.28;2.80;;;;;;;;;;5072116;28;20191;-58
2024/01/31 07:46:42;;;;;;;7.05;3.22;;;;;;;;;;5059972;28;20057;-58
2024/01/31 07:49:11;;;;;;;5.60;3.00;;;;;;;;;;5064191;28;20149;-58
2024/01/31 07:51:44;;;;;;;5.18;3.53;;;;;;;;;;5070383;28;20084;-59
2024/01/31 07:54:12;;;;;;;7.05;3.40;;;;;;;;;;5069679;28;20044;-59
2024/01/31 07:56:41;;;;;;;5.43;2.90;;;;;;;;;;5070941;28;20056;-58
2024/01/31 07:59:10;;;;;;;4.63;2.92;;;;;;;;;;5066500;28;20045;-60
2024/01/31 08:01:38;;;;;;;4.15;2.83;;;;;;;;;;5071221;28;20072;-65
2024/01/31 08:04:07;;;;;;;3.58;2.22;;;;;;;;;;5069862;28;20045;-59
2024/01/31 08:06:37;;;;;;;3.70;2.35;;;;;;;;;;5070523;28;20048;-57
2024/01/31 08:09:07;;;;;;;6.22;2.75;;;;;;;;;;5070008;28;20390;-59
2024/01/31 08:11:49;;;;;;;5.00;2.60;;;;;;;;;;5070362;28;20053;-60
2024/01/31 08:14:17;;;;;;;4.95;2.70;;;;;;;;;;5071428;28;20033;-59
2024/01/31 08:16:49;;;;;;;4.03;2.45;;;;;;;;;;5071104;28;20484;-59
2024/01/31 08:19:18;;;;;;;4.50;2.50;;;;;;;;;;5071798;28;20044;-64
2024/01/31 08:21:46;;;;;;;4.65;2.92;;;;;;;;;;5066361;28;20041;-59
2024/01/31 08:24:18;;;;;;;4.35;2.60;;;;;;;;;;5070876;28;20059;-62
2024/01/31 08:26:46;;;;;;;3.40;2.47;;;;;;;;;;5070651;28;20055;-60
2024/01/31 08:29:15;;;;;;;3.40;2.08;;;;;;;;;;5069641;28;20048;-59
2024/01/31 08:31:54;;;;;;;4.20;2.50;;;;;;;;;;5071130;28;20436;-60
2024/01/31 08:34:23;;;;;;;8.98;3.17;;;;;;;;;;5070699;28;20041;-59
2024/01/31 08:36:57;;;;;;;7.25;3.00;;;;;;;;;;5058350;28;20060;-61
2024/01/31 08:39:26;;;;;;;6.47;3.00;;;;;;;;;;5068265;28;20044;-60
2024/01/31 08:41:55;;;;;;;5.38;3.40;;;;;;;;;;5070809;28;20056;-60
2024/01/31 08:44:23;;;;;;;6.57;3.33;;;;;;;;;;5064926;28;20497;-60
2024/01/31 08:46:53;;;;;;;5.13;3.58;;;;;;;;;;5069601;28;20136;-62
2024/01/31 08:49:41;;;;;;;5.20;3.13;;;;;;;;;;5064905;28;20051;-64
2024/01/31 08:52:11;;;;;;;5.78;2.75;;;;;;;;;;5067554;28;20053;-59
2024/01/31 08:54:41;;;;;;;7.97;3.55;;;;;;;;;;5069992;28;20053;-62
2024/01/31 08:57:10;;;;;;;6.93;4.13;;;;;;;;;;5069802;28;20048;-60
2024/01/31 08:59:39;;;;;;;6.78;3.58;;;;;;;;;;5069849;28;20059;-61
2024/01/31 09:02:08;;;;;;;6.10;3.20;;;;;;;;;;5068994;28;20105;-59
2024/01/31 09:04:37;;;;;;;6.30;3.50;;;;;;;;;;5064609;28;20099;-62
2024/01/31 09:07:05;;;;;;;6.00;3.50;;;;;;;;;;5069104;28;20049;-60
2024/01/31 09:09:37;;;;;;;6.10;3.17;;;;;;;;;;5069494;28;20139;-59
2024/01/31 09:12:08;;;;;;;5.85;3.47;;;;;;;;;;5068591;28;20051;-59
2024/01/31 09:14:37;;;;;;;6.43;3.40;;;;;;;;;;5070142;28;20508;-60
2024/01/31 09:17:05;;;;;;;6.72;3.22;;;;;;;;;;5068776;28;20433;-59
2024/01/31 09:19:34;;;;;;;6.45;3.00;;;;;;;;;;5067177;28;20055;-60
2024/01/31 09:22:02;;;;;;;6.63;3.55;;;;;;;;;;5069239;28;20726;-62
2024/01/31 09:24:31;;;;;;;5.78;3.72;;;;;;;;;;5064279;28;20053;-63
2024/01/31 09:26:59;;;;;;;5.82;2.72;;;;;;;;;;5065050;28;20045;-61
2024/01/31 09:29:29;;;;;;;5.47;3.20;;;;;;;;;;5069219;28;20183;-62
2024/01/31 09:31:59;;;;;;;7.90;3.42;;;;;;;;;;5069494;28;20044;-62
2024/01/31 09:34:27;;;;;;;6.00;3.92;;;;;;;;;;5068968;28;20110;-62
2024/01/31 09:36:56;;;;;;;7.18;3.25;;;;;;;;;;5069127;28;20044;-63
2024/01/31 09:39:25;;;;;;;6.80;3.72;;;;;;;;;;5059478;28;20044;-62
2024/01/31 09:41:54;;;;;;;5.88;3.75;;;;;;;;;;5068134;28;20078;-63
2024/01/31 09:44:23;;;;;;;6.18;3.55;;;;;;;;;;5068827;28;20052;-63
2024/01/31 09:46:53;;;;;;;6.13;3.33;;;;;;;;;;5064092;28;20044;-62
2024/01/31 09:49:22;;;;;;;5.93;3.53;;;;;;;;;;5067910;28;20048;-61
2024/01/31 09:51:51;;;;;;;9.52;3.80;;;;;;;;;;5068001;28;20048;-61
2024/01/31 09:54:20;;;;;;;8.77;3.85;;;;;;;;;;5067170;28;20040;-62
2024/01/31 09:56:48;;;;;;;7.30;4.07;;;;;;;;;;5068653;28;20059;-62
2024/01/31 09:59:17;;;;;;;7.82;4.05;;;;;;;;;;5068884;28;20060;-63
2024/01/31 10:01:47;;;;;;;5.50;3.63;;;;;;;;;;5058843;28;20045;-61
2024/01/31 10:04:18;;;;;;;7.35;3.85;;;;;;;;;;5065297;28;20446;-62
2024/01/31 10:06:46;;;;;;;6.25;3.58;;;;;;;;;;5065566;28;20048;-62
2024/01/31 10:09:15;;;;;;;5.20;3.67;;;;;;;;;;5068377;28;20051;-61
2024/01/31 10:11:46;;;;;;;7.80;3.63;;;;;;;;;;5066947;28;20048;-61
2024/01/31 10:14:15;;;;;;;8.02;4.10;;;;;;;;;;5068271;28;20131;-62
2024/01/31 10:16:44;;;;;;;11.18;4.78;;;;;;;;;;5067862;28;20056;-61
2024/01/31 10:19:13;;;;;;;6.55;3.67;;;;;;;;;;5063623;28;20098;-62
2024/01/31 10:21:43;;;;;;;6.45;3.72;;;;;;;;;;5068347;28;20071;-62
2024/01/31 10:24:11;;;;;;;5.75;3.65;;;;;;;;;;5068705;28;20044;-63
2024/01/31 10:26:40;;;;;;;6.18;3.78;;;;;;;;;;5064055;28;20041;-61
2024/01/31 10:29:09;;;;;;;8.23;3.83;;;;;;;;;;5066488;28;20131;-62
2024/01/31 10:31:38;;;;;;;6.90;3.40;;;;;;;;;;5069261;28;20036;-62
2024/01/31 10:34:09;;;;;;;6.93;3.78;;;;;;;;;;5069125;28;20476;-62
2024/01/31 10:36:40;;;;;;;6.18;3.33;;;;;;;;;;5069060;28;20048;-62
2024/01/31 10:39:13;;;;;;;5.43;3.55;;;;;;;;;;5069144;28;20045;-62
2024/01/31 10:41:43;;;;;;;7.38;3.60;;;;;;;;;;5068933;28;20469;-61
2024/01/31 10:44:14;;;;;;;7.13;3.17;;;;;;;;;;5065107;28;20037;-61
2024/01/31 10:46:44;;;;;;;6.47;3.72;;;;;;;;;;5062913;28;20505;-62
2024/01/31 10:49:13;;;;;;;7.35;3.50;;;;;;;;;;5061189;28;20136;-63
2024/01/31 10:51:43;;;;;;;7.72;4.07;;;;;;;;;;5069159;28;20048;-62
2024/01/31 10:54:13;;;;;;;4.88;3.35;;;;;;;;;;5069306;28;20464;-61
2024/01/31 10:56:42;;;;;;;5.60;3.58;;;;;;;;;;5067433;28;20413;-62
2024/01/31 10:59:13;;;;;;;5.45;3.10;;;;;;;;;;5068642;28;20076;-62
2024/01/31 11:01:52;;;;;;;7.35;3.55;;;;;;;;;;5060160;28;20551;-63
2024/01/31 11:04:22;;;;;;;7.05;3.90;;;;;;;;;;5072015;28;20084;-62
2024/01/31 11:06:51;;;;;;;7.18;3.53;;;;;;;;;;5072870;28;20045;-62
2024/01/31 11:09:23;;;;;;;6.22;3.10;;;;;;;;;;5073024;28;20086;-62
2024/01/31 11:12:01;;;;;;;6.53;3.45;;;;;;;;;;5069431;28;20059;-62
2024/01/31 11:14:31;;;;;;;5.10;3.60;;;;;;;;;;5072018;28;20118;-62
2024/01/31 11:17:06;;;;;;;4.18;2.75;;;;;;;;;;5070970;28;20444;-61
2024/01/31 11:19:36;;;;;;;6.03;3.75;;;;;;;;;;5072294;28;20071;-63
2024/01/31 11:22:06;;;;;;;4.38;3.22;;;;;;;;;;5072379;28;20802;-62
2024/01/31 11:24:40;;;;;;;6.55;3.75;;;;;;;;;;5071148;28;20048;-63
2024/01/31 11:27:09;;;;;;;6.97;3.55;;;;;;;;;;5070590;28;20389;-62
2024/01/31 11:29:38;;;;;;;4.13;2.58;;;;;;;;;;5069923;28;20086;-62
2024/01/31 11:32:07;;;;;;;5.20;3.20;;;;;;;;;;5070130;28;20051;-62
2024/01/31 11:34:35;;;;;;;8.63;3.75;;;;;;;;;;5069049;28;20044;-62
2024/01/31 11:37:03;;;;;;;6.85;3.35;;;;;;;;;;5070463;28;20055;-62
2024/01/31 11:39:32;;;;;;;6.68;2.97;;;;;;;;;;5072425;28;20054;-62
2024/01/31 11:42:01;;;;;;;5.65;2.90;;;;;;;;;;5071920;28;20374;-60
2024/01/31 11:44:30;;;;;;;9.98;3.30;;;;;;;;;;5072203;28;20056;-62
2024/01/31 11:46:59;;;;;;;7.15;3.15;;;;;;;;;;5068299;28;20401;-62
2024/01/31 11:49:27;;;;;;;6.30;3.53;;;;;;;;;;5069882;28;20110;-63
2024/01/31 11:51:56;;;;;;;6.63;3.03;;;;;;;;;;5062043;28;20527;-61
2024/01/31 11:54:24;;;;;;;6.47;3.00;;;;;;;;;;5072126;28;20106;-61
2024/01/31 11:56:53;;;;;;;6.90;3.08;;;;;;;;;;5069536;28;20505;-62
2024/01/31 11:59:23;;;;;;;4.50;2.83;;;;;;;;;;5071183;28;20536;-63
2024/01/31 12:01:51;;;;;;;5.43;3.22;;;;;;;;;;5070463;28;20376;-63
2024/01/31 12:04:20;;;;;;;4.22;2.70;;;;;;;;;;5069779;28;20048;-62
2024/01/31 12:06:48;;;;;;;6.25;2.97;;;;;;;;;;5068805;28;20044;-62
2024/01/31 12:09:17;;;;;;;6.55;2.90;;;;;;;;;;5071297;28;20074;-63
2024/01/31 12:11:46;;;;;;;6.28;2.95;;;;;;;;;;5065992;28;20043;-63
2024/01/31 12:14:14;;;;;;;5.80;3.08;;;;;;;;;;5067706;28;20048;-63
2024/01/31 12:16:44;;;;;;;6.50;2.90;;;;;;;;;;5070622;28;20044;-62
2024/01/31 12:19:19;;;;;;;4.55;2.88;;;;;;;;;;5071738;28;20052;-62
2024/01/31 12:21:48;;;;;;;8.85;3.33;;;;;;;;;;5066738;28;20064;-64
2024/01/31 12:24:16;;;;;;;5.45;3.13;;;;;;;;;;5065778;28;20044;-63
2024/01/31 12:26:44;;;;;;;7.95;3.28;;;;;;;;;;5067333;28;20496;-64
2024/01/31 12:29:13;;;;;;;9.10;2.90;;;;;;;;;;5066026;28;20064;-62
2024/01/31 12:31:41;;;;;;;5.10;3.25;;;;;;;;;;5068446;28;20147;-62
2024/01/31 12:34:11;;;;;;;4.55;2.67;;;;;;;;;;5070798;28;20047;-62
2024/01/31 12:36:40;;;;;;;4.88;3.22;;;;;;;;;;5069811;28;20049;-62
2024/01/31 12:39:08;;;;;;;4.40;3.20;;;;;;;;;;5070023;28;20509;-62
2024/01/31 12:41:37;;;;;;;5.70;2.97;;;;;;;;;;5069889;28;20128;-62
2024/01/31 12:44:06;;;;;;;4.55;3.25;;;;;;;;;;5069979;28;20037;-62
2024/01/31 12:46:35;;;;;;;4.45;2.67;;;;;;;;;;5069019;28;20083;-61
2024/01/31 12:49:03;;;;;;;4.10;2.53;;;;;;;;;;5069876;28;20455;-62
2024/01/31 12:51:33;;;;;;;8.15;2.80;;;;;;;;;;5069805;28;20461;-63
2024/01/31 12:54:02;;;;;;;9.52;3.05;;;;;;;;;;5069459;28;20056;-63
2024/01/31 12:56:30;;;;;;;5.43;3.85;;;;;;;;;;5069808;28;20044;-61
2024/01/31 12:58:59;;;;;;;7.47;3.22;;;;;;;;;;5067384;28;20053;-61
2024/01/31 13:01:27;;;;;;;6.70;2.92;;;;;;;;;;5063063;28;20287;-61
2024/01/31 13:03:56;;;;;;;5.47;3.08;;;;;;;;;;5068753;28;20072;-61
2024/01/31 13:06:25;;;;;;;7.57;3.08;;;;;;;;;;5060017;28;20048;-60
2024/01/31 13:08:55;;;;;;;5.05;3.05;;;;;;;;;;5069190;28;20049;-61
2024/01/31 13:11:24;;;;;;;5.05;2.95;;;;;;;;;;5069422;28;20045;-61
2024/01/31 13:13:52;;;;;;;8.43;3.40;;;;;;;;;;5069715;28;20044;-62
2024/01/31 13:16:21;;;;;;;4.13;3.15;;;;;;;;;;5068593;28;20111;-61
2024/01/31 13:18:50;;;;;;;5.72;2.90;;;;;;;;;;5068711;28;20052;-61
2024/01/31 13:21:19;;;;;;;7.45;3.10;;;;;;;;;;5069769;28;20061;-61
2024/01/31 13:23:47;;;;;;;6.03;3.00;;;;;;;;;;5062557;28;20049;-61
2024/01/31 13:26:17;;;;;;;10.32;3.20;;;;;;;;;;5067526;28;20072;-61
2024/01/31 13:28:46;;;;;;;6.07;3.15;;;;;;;;;;5068819;28;20080;-61
2024/01/31 13:31:14;;;;;;;4.65;3.13;;;;;;;;;;5069912;28;20463;-62
2024/01/31 13:33:43;;;;;;;7.93;2.92;;;;;;;;;;5069433;28;20052;-61
2024/01/31 13:36:12;;;;;;;11.70;3.13;;;;;;;;;;5058022;28;20051;-62
2024/01/31 13:38:40;;;;;;;8.38;3.17;;;;;;;;;;5068519;28;20044;-61
2024/01/31 13:41:08;;;;;;;6.97;3.22;;;;;;;;;;5069102;28;20132;-61
2024/01/31 13:43:38;;;;;;;8.45;3.15;;;;;;;;;;5069339;28;20113;-61
2024/01/31 13:46:07;;;;;;;5.55;2.70;;;;;;;;;;5061373;28;20045;-62
2024/01/31 13:48:36;;;;;;;6.32;3.30;;;;;;;;;;5066536;28;20045;-62
2024/01/31 13:51:05;;;;;;;6.72;3.50;;;;;;;;;;5067962;28;20052;-61
2024/01/31 13:53:33;;;;;;;3.92;2.78;;;;;;;;;;5068805;28;20128;-61
2024/01/31 13:56:02;;;;;;;9.27;3.25;;;;;;;;;;5068938;28;20091;-62
2024/01/31 13:58:30;;;;;;;4.30;2.83;;;;;;;;;;5067529;28;20044;-62
2024/01/31 14:01:00;;;;;;;4.93;2.67;;;;;;;;;;5060567;28;20497;-61
2024/01/31 14:03:29;;;;;;;6.00;3.20;;;;;;;;;;5068293;28;20113;-61
2024/01/31 14:05:57;;;;;;;6.15;2.97;;;;;;;;;;5058518;28;20493;-60
2024/01/31 14:08:26;;;;;;;5.97;2.75;;;;;;;;;;5055716;28;20044;-61
2024/01/31 14:10:54;;;;;;;4.80;3.47;;;;;;;;;;5068678;28;20090;-61
2024/01/31 14:13:22;;;;;;;4.53;3.17;;;;;;;;;;5065917;28;20126;-60
2024/01/31 14:15:51;;;;;;;5.75;3.10;;;;;;;;;;5062885;28;20040;-62
2024/01/31 14:18:21;;;;;;;5.60;3.00;;;;;;;;;;5065568;28;20582;-61
2024/01/31 14:20:52;;;;;;;6.45;3.13;;;;;;;;;;5061643;28;20056;-61
2024/01/31 14:23:21;;;;;;;5.03;2.13;;;;;;;;;;5066819;28;20483;-61
2024/01/31 14:26:09;;;;;;;5.85;2.60;;;;;;;;;;5061747;28;20517;-61
2024/01/31 14:28:38;;;;;;;5.18;2.75;;;;;;;;;;5067546;28;20114;-61
2024/01/31 14:31:08;;;;;;;3.60;2.72;;;;;;;;;;5068887;28;20540;-61
2024/01/31 14:33:38;;;;;;;5.97;2.75;;;;;;;;;;5068193;28;20048;-63
2024/01/31 14:36:07;;;;;;;6.10;2.80;;;;;;;;;;5060026;28;20048;-61
2024/01/31 14:38:40;;;;;;;7.13;3.03;;;;;;;;;;5074646;28;20135;-62
2024/01/31 14:41:09;;;;;;;5.78;3.22;;;;;;;;;;5069663;28;20056;-64
2024/01/31 14:43:37;;;;;;;5.00;3.17;;;;;;;;;;5075026;28;20049;-61
2024/01/31 14:46:06;;;;;;;5.53;2.88;;;;;;;;;;5072348;28;20051;-61
2024/01/31 14:48:34;;;;;;;3.97;2.50;;;;;;;;;;5074986;28;20473;-61
2024/01/31 14:51:04;;;;;;;5.07;3.10;;;;;;;;;;5067729;28;20052;-62
2024/01/31 14:53:33;;;;;;;6.05;3.10;;;;;;;;;;5073412;28;20046;-62